sensor_id;sensor_type;location;lat;lon;timestamp;P1;durP1;ratioP1;P2;durP2;ratioP2
12135;SDS011;6131;56.420;15.548;2023-02-28T00:00:01;4.17;;;1.60;;
12135;SDS011;6131;56.420;15.548;2023-02-28T00:02:34;2.87;;;1.57;;
12135;SDS011;6131;56.420;15.548;2023-02-28T00:05:00;2.77;;;1.73;;
12135;SDS011;6131;56.420;15.548;2023-02-28T00:07:28;4.07;;;1.87;;
12135;SDS011;6131;56.420;15.548;2023-02-28T00:09:54;3.63;;;1.87;;
12135;SDS011;6131;56.420;15.548;2023-02-28T00:12:20;2.40;;;1.70;;
12135;SDS011;6131;56.420;15.548;2023-02-28T00:14:46;3.70;;;1.60;;
12135;SDS011;6131;56.420;15.548;2023-02-28T00:17:12;3.50;;;1.80;;
12135;SDS011;6131;56.420;15.548;2023-02-28T00:19:38;2.57;;;1.60;;
12135;SDS011;6131;56.420;15.548;2023-02-28T00:22:04;2.57;;;1.63;;
12135;SDS011;6131;56.420;15.548;2023-02-28T00:24:30;3.60;;;1.80;;
12135;SDS011;6131;56.420;15.548;2023-02-28T00:26:56;3.97;;;2.23;;
12135;SDS011;6131;56.420;15.548;2023-02-28T00:29:22;3.33;;;1.77;;
12135;SDS011;6131;56.420;15.548;2023-02-28T00:31:48;3.43;;;1.63;;
12135;SDS011;6131;56.420;15.548;2023-02-28T00:34:14;2.57;;;1.70;;
12135;SDS011;6131;56.420;15.548;2023-02-28T00:36:40;2.97;;;1.70;;
12135;SDS011;6131;56.420;15.548;2023-02-28T00:39:10;2.03;;;1.40;;
12135;SDS011;6131;56.420;15.548;2023-02-28T00:41:36;1.70;;;1.30;;
12135;SDS011;6131;56.420;15.548;2023-02-28T00:44:02;5.10;;;1.60;;
12135;SDS011;6131;56.420;15.548;2023-02-28T00:46:28;3.07;;;1.43;;
12135;SDS011;6131;56.420;15.548;2023-02-28T00:48:54;3.43;;;1.70;;
12135;SDS011;6131;56.420;15.548;2023-02-28T00:51:20;2.63;;;1.77;;
12135;SDS011;6131;56.420;15.548;2023-02-28T00:53:46;3.73;;;1.47;;
12135;SDS011;6131;56.420;15.548;2023-02-28T00:56:12;3.67;;;1.40;;
12135;SDS011;6131;56.420;15.548;2023-02-28T00:58:38;3.33;;;1.43;;
12135;SDS011;6131;56.420;15.548;2023-02-28T01:01:05;3.70;;;1.50;;
12135;SDS011;6131;56.420;15.548;2023-02-28T01:03:31;2.30;;;1.40;;
12135;SDS011;6131;56.420;15.548;2023-02-28T01:05:57;1.80;;;1.20;;
12135;SDS011;6131;56.420;15.548;2023-02-28T01:08:23;3.90;;;1.40;;
12135;SDS011;6131;56.420;15.548;2023-02-28T01:10:50;1.83;;;1.20;;
12135;SDS011;6131;56.420;15.548;2023-02-28T01:13:17;1.17;;;1.00;;
12135;SDS011;6131;56.420;15.548;2023-02-28T01:15:49;5.03;;;1.37;;
12135;SDS011;6131;56.420;15.548;2023-02-28T01:18:16;1.87;;;1.30;;
12135;SDS011;6131;56.420;15.548;2023-02-28T01:20:42;1.30;;;1.03;;
12135;SDS011;6131;56.420;15.548;2023-02-28T01:23:08;2.47;;;1.50;;
12135;SDS011;6131;56.420;15.548;2023-02-28T01:25:35;3.20;;;1.40;;
12135;SDS011;6131;56.420;15.548;2023-02-28T01:28:01;2.47;;;1.37;;
12135;SDS011;6131;56.420;15.548;2023-02-28T01:30:27;3.47;;;1.50;;
12135;SDS011;6131;56.420;15.548;2023-02-28T01:32:53;2.40;;;1.40;;
12135;SDS011;6131;56.420;15.548;2023-02-28T01:35:19;1.50;;;1.30;;
12135;SDS011;6131;56.420;15.548;2023-02-28T01:37:45;2.27;;;1.30;;
12135;SDS011;6131;56.420;15.548;2023-02-28T01:40:11;2.83;;;1.40;;
12135;SDS011;6131;56.420;15.548;2023-02-28T01:42:37;2.70;;;1.37;;
12135;SDS011;6131;56.420;15.548;2023-02-28T01:45:06;5.73;;;1.37;;
12135;SDS011;6131;56.420;15.548;2023-02-28T01:47:40;3.33;;;1.30;;
12135;SDS011;6131;56.420;15.548;2023-02-28T01:50:09;1.67;;;1.23;;
12135;SDS011;6131;56.420;15.548;2023-02-28T01:52:36;3.17;;;1.40;;
12135;SDS011;6131;56.420;15.548;2023-02-28T01:55:03;3.03;;;1.37;;
12135;SDS011;6131;56.420;15.548;2023-02-28T01:57:32;1.77;;;1.13;;
12135;SDS011;6131;56.420;15.548;2023-02-28T02:00:24;3.30;;;1.50;;
12135;SDS011;6131;56.420;15.548;2023-02-28T02:02:50;2.40;;;1.40;;
12135;SDS011;6131;56.420;15.548;2023-02-28T02:05:21;3.60;;;1.30;;
12135;SDS011;6131;56.420;15.548;2023-02-28T02:07:48;2.33;;;1.30;;
12135;SDS011;6131;56.420;15.548;2023-02-28T02:10:17;2.13;;;1.30;;
12135;SDS011;6131;56.420;15.548;2023-02-28T02:13:27;3.93;;;1.80;;
12135;SDS011;6131;56.420;15.548;2023-02-28T02:25:54;2.83;;;1.70;;
12135;SDS011;6131;56.420;15.548;2023-02-28T02:36:17;2.53;;;1.60;;
12135;SDS011;6131;56.420;15.548;2023-02-28T02:41:15;2.50;;;1.60;;
12135;SDS011;6131;56.420;15.548;2023-02-28T02:46:55;2.73;;;1.53;;
12135;SDS011;6131;56.420;15.548;2023-02-28T02:49:03;3.23;;;1.47;;
12135;SDS011;6131;56.420;15.548;2023-02-28T02:51:30;5.37;;;1.80;;
12135;SDS011;6131;56.420;15.548;2023-02-28T02:54:00;3.13;;;1.40;;
12135;SDS011;6131;56.420;15.548;2023-02-28T02:56:28;2.20;;;1.30;;
12135;SDS011;6131;56.420;15.548;2023-02-28T02:58:57;2.67;;;1.50;;
12135;SDS011;6131;56.420;15.548;2023-02-28T03:01:24;1.70;;;1.27;;
12135;SDS011;6131;56.420;15.548;2023-02-28T03:03:55;3.03;;;1.37;;
12135;SDS011;6131;56.420;15.548;2023-02-28T03:06:22;3.30;;;1.50;;
12135;SDS011;6131;56.420;15.548;2023-02-28T03:08:48;1.80;;;1.13;;
12135;SDS011;6131;56.420;15.548;2023-02-28T03:11:14;3.33;;;1.40;;
12135;SDS011;6131;56.420;15.548;2023-02-28T03:13:52;3.30;;;1.50;;
12135;SDS011;6131;56.420;15.548;2023-02-28T03:16:39;1.83;;;1.07;;
12135;SDS011;6131;56.420;15.548;2023-02-28T03:26:50;2.63;;;1.30;;
12135;SDS011;6131;56.420;15.548;2023-02-28T03:31:48;4.57;;;1.30;;
12135;SDS011;6131;56.420;15.548;2023-02-28T03:34:24;2.07;;;1.20;;
12135;SDS011;6131;56.420;15.548;2023-02-28T03:36:52;2.13;;;1.30;;
12135;SDS011;6131;56.420;15.548;2023-02-28T03:39:20;2.73;;;1.40;;
12135;SDS011;6131;56.420;15.548;2023-02-28T03:41:49;3.27;;;1.20;;
12135;SDS011;6131;56.420;15.548;2023-02-28T03:44:34;3.90;;;1.37;;
12135;SDS011;6131;56.420;15.548;2023-02-28T03:47:03;2.70;;;1.50;;
12135;SDS011;6131;56.420;15.548;2023-02-28T03:50:12;2.40;;;1.20;;
12135;SDS011;6131;56.420;15.548;2023-02-28T03:52:19;2.50;;;1.40;;
12135;SDS011;6131;56.420;15.548;2023-02-28T03:54:50;2.83;;;1.60;;
12135;SDS011;6131;56.420;15.548;2023-02-28T03:59:44;2.07;;;1.40;;
12135;SDS011;6131;56.420;15.548;2023-02-28T04:02:12;2.43;;;1.57;;
12135;SDS011;6131;56.420;15.548;2023-02-28T04:04:39;1.67;;;1.17;;
12135;SDS011;6131;56.420;15.548;2023-02-28T04:07:10;2.17;;;1.30;;
12135;SDS011;6131;56.420;15.548;2023-02-28T04:09:36;2.17;;;1.30;;
12135;SDS011;6131;56.420;15.548;2023-02-28T04:12:03;1.70;;;1.27;;
12135;SDS011;6131;56.420;15.548;2023-02-28T04:14:29;1.70;;;1.10;;
12135;SDS011;6131;56.420;15.548;2023-02-28T04:16:55;3.37;;;1.53;;
12135;SDS011;6131;56.420;15.548;2023-02-28T04:19:21;1.53;;;1.10;;
12135;SDS011;6131;56.420;15.548;2023-02-28T04:21:48;2.10;;;1.40;;
12135;SDS011;6131;56.420;15.548;2023-02-28T04:24:16;1.40;;;1.20;;
12135;SDS011;6131;56.420;15.548;2023-02-28T04:26:44;3.20;;;1.47;;
12135;SDS011;6131;56.420;15.548;2023-02-28T04:29:11;4.30;;;1.60;;
12135;SDS011;6131;56.420;15.548;2023-02-28T04:31:38;3.80;;;1.50;;
12135;SDS011;6131;56.420;15.548;2023-02-28T04:34:04;1.50;;;1.33;;
12135;SDS011;6131;56.420;15.548;2023-02-28T04:36:30;2.27;;;1.40;;
12135;SDS011;6131;56.420;15.548;2023-02-28T04:38:56;1.93;;;1.47;;
12135;SDS011;6131;56.420;15.548;2023-02-28T04:41:22;1.77;;;1.30;;
12135;SDS011;6131;56.420;15.548;2023-02-28T04:43:49;2.77;;;1.67;;
12135;SDS011;6131;56.420;15.548;2023-02-28T04:46:16;1.80;;;1.30;;
12135;SDS011;6131;56.420;15.548;2023-02-28T04:48:43;3.37;;;1.60;;
12135;SDS011;6131;56.420;15.548;2023-02-28T04:51:10;4.20;;;1.40;;
12135;SDS011;6131;56.420;15.548;2023-02-28T04:53:37;3.00;;;1.60;;
12135;SDS011;6131;56.420;15.548;2023-02-28T04:56:04;1.87;;;1.30;;
12135;SDS011;6131;56.420;15.548;2023-02-28T04:58:31;5.30;;;1.30;;
12135;SDS011;6131;56.420;15.548;2023-02-28T05:03:53;2.47;;;1.50;;
12135;SDS011;6131;56.420;15.548;2023-02-28T05:06:20;3.20;;;1.43;;
12135;SDS011;6131;56.420;15.548;2023-02-28T05:08:48;2.83;;;1.50;;
12135;SDS011;6131;56.420;15.548;2023-02-28T05:11:35;3.73;;;1.60;;
12135;SDS011;6131;56.420;15.548;2023-02-28T05:14:01;2.33;;;1.30;;
12135;SDS011;6131;56.420;15.548;2023-02-28T05:16:27;2.33;;;1.63;;
12135;SDS011;6131;56.420;15.548;2023-02-28T05:18:53;2.40;;;1.23;;
12135;SDS011;6131;56.420;15.548;2023-02-28T05:21:24;3.10;;;1.50;;
12135;SDS011;6131;56.420;15.548;2023-02-28T05:23:50;3.90;;;1.77;;
12135;SDS011;6131;56.420;15.548;2023-02-28T05:26:17;2.90;;;1.60;;
12135;SDS011;6131;56.420;15.548;2023-02-28T05:28:43;3.17;;;1.70;;
12135;SDS011;6131;56.420;15.548;2023-02-28T05:31:12;3.73;;;1.90;;
12135;SDS011;6131;56.420;15.548;2023-02-28T05:33:38;3.30;;;1.37;;
12135;SDS011;6131;56.420;15.548;2023-02-28T05:36:04;4.83;;;1.63;;
12135;SDS011;6131;56.420;15.548;2023-02-28T05:38:31;2.60;;;1.70;;
12135;SDS011;6131;56.420;15.548;2023-02-28T05:40:57;4.60;;;1.60;;
12135;SDS011;6131;56.420;15.548;2023-02-28T05:43:23;2.47;;;1.27;;
12135;SDS011;6131;56.420;15.548;2023-02-28T05:45:49;6.93;;;1.50;;
12135;SDS011;6131;56.420;15.548;2023-02-28T05:48:15;2.87;;;1.40;;
12135;SDS011;6131;56.420;15.548;2023-02-28T05:50:43;3.77;;;1.40;;
12135;SDS011;6131;56.420;15.548;2023-02-28T05:53:11;2.87;;;1.70;;
12135;SDS011;6131;56.420;15.548;2023-02-28T05:55:37;2.50;;;1.40;;
12135;SDS011;6131;56.420;15.548;2023-02-28T05:58:03;2.63;;;1.50;;
12135;SDS011;6131;56.420;15.548;2023-02-28T06:00:29;2.93;;;1.47;;
12135;SDS011;6131;56.420;15.548;2023-02-28T06:02:55;2.40;;;1.50;;
12135;SDS011;6131;56.420;15.548;2023-02-28T06:05:23;1.67;;;1.10;;
12135;SDS011;6131;56.420;15.548;2023-02-28T06:07:49;1.63;;;1.30;;
12135;SDS011;6131;56.420;15.548;2023-02-28T06:10:15;2.17;;;1.33;;
12135;SDS011;6131;56.420;15.548;2023-02-28T06:12:41;2.30;;;1.30;;
12135;SDS011;6131;56.420;15.548;2023-02-28T06:15:11;2.97;;;1.57;;
12135;SDS011;6131;56.420;15.548;2023-02-28T06:17:37;2.07;;;1.30;;
12135;SDS011;6131;56.420;15.548;2023-02-28T06:20:03;3.13;;;1.30;;
12135;SDS011;6131;56.420;15.548;2023-02-28T06:22:30;4.17;;;1.10;;
12135;SDS011;6131;56.420;15.548;2023-02-28T06:24:56;1.83;;;1.20;;
12135;SDS011;6131;56.420;15.548;2023-02-28T06:27:22;2.03;;;1.10;;
12135;SDS011;6131;56.420;15.548;2023-02-28T06:29:48;3.33;;;1.33;;
12135;SDS011;6131;56.420;15.548;2023-02-28T06:32:14;2.40;;;1.40;;
12135;SDS011;6131;56.420;15.548;2023-02-28T06:34:40;3.03;;;1.67;;
12135;SDS011;6131;56.420;15.548;2023-02-28T06:37:06;2.27;;;1.47;;
12135;SDS011;6131;56.420;15.548;2023-02-28T06:39:32;2.10;;;1.23;;
12135;SDS011;6131;56.420;15.548;2023-02-28T06:41:59;4.03;;;1.50;;
12135;SDS011;6131;56.420;15.548;2023-02-28T06:44:25;2.40;;;1.33;;
12135;SDS011;6131;56.420;15.548;2023-02-28T06:46:51;2.70;;;1.47;;
12135;SDS011;6131;56.420;15.548;2023-02-28T06:49:17;2.33;;;2.00;;
12135;SDS011;6131;56.420;15.548;2023-02-28T06:51:43;3.53;;;2.13;;
12135;SDS011;6131;56.420;15.548;2023-02-28T06:54:12;4.27;;;2.97;;
12135;SDS011;6131;56.420;15.548;2023-02-28T06:56:38;2.63;;;2.17;;
12135;SDS011;6131;56.420;15.548;2023-02-28T06:59:04;2.07;;;1.87;;
12135;SDS011;6131;56.420;15.548;2023-02-28T07:01:30;3.53;;;2.20;;
12135;SDS011;6131;56.420;15.548;2023-02-28T07:03:57;2.73;;;1.70;;
12135;SDS011;6131;56.420;15.548;2023-02-28T07:06:25;21.27;;;8.13;;
12135;SDS011;6131;56.420;15.548;2023-02-28T07:08:51;31.60;;;12.20;;
12135;SDS011;6131;56.420;15.548;2023-02-28T07:11:18;228.77;;;73.93;;
12135;SDS011;6131;56.420;15.548;2023-02-28T07:13:44;157.40;;;52.47;;
12135;SDS011;6131;56.420;15.548;2023-02-28T07:16:11;36.87;;;13.03;;
12135;SDS011;6131;56.420;15.548;2023-02-28T07:18:38;43.23;;;15.10;;
12135;SDS011;6131;56.420;15.548;2023-02-28T07:21:05;61.47;;;23.73;;
12135;SDS011;6131;56.420;15.548;2023-02-28T07:23:32;126.83;;;44.33;;
12135;SDS011;6131;56.420;15.548;2023-02-28T07:25:58;112.00;;;40.73;;
12135;SDS011;6131;56.420;15.548;2023-02-28T07:28:24;84.93;;;34.23;;
12135;SDS011;6131;56.420;15.548;2023-02-28T07:30:50;75.23;;;30.47;;
12135;SDS011;6131;56.420;15.548;2023-02-28T07:33:16;68.23;;;29.13;;
12135;SDS011;6131;56.420;15.548;2023-02-28T07:35:42;141.57;;;45.87;;
12135;SDS011;6131;56.420;15.548;2023-02-28T07:38:08;114.10;;;37.90;;
12135;SDS011;6131;56.420;15.548;2023-02-28T07:40:35;129.60;;;43.90;;
12135;SDS011;6131;56.420;15.548;2023-02-28T07:43:01;117.47;;;41.33;;
12135;SDS011;6131;56.420;15.548;2023-02-28T07:45:28;115.70;;;40.07;;
12135;SDS011;6131;56.420;15.548;2023-02-28T07:47:54;108.87;;;39.97;;
12135;SDS011;6131;56.420;15.548;2023-02-28T07:50:20;53.23;;;22.20;;
12135;SDS011;6131;56.420;15.548;2023-02-28T07:52:46;40.03;;;15.47;;
12135;SDS011;6131;56.420;15.548;2023-02-28T07:55:12;45.57;;;18.77;;
12135;SDS011;6131;56.420;15.548;2023-02-28T07:57:39;29.23;;;11.67;;
12135;SDS011;6131;56.420;15.548;2023-02-28T08:00:05;12.70;;;5.43;;
12135;SDS011;6131;56.420;15.548;2023-02-28T08:02:34;7.47;;;2.97;;
12135;SDS011;6131;56.420;15.548;2023-02-28T08:05:00;6.70;;;3.07;;
12135;SDS011;6131;56.420;15.548;2023-02-28T08:07:26;8.23;;;2.93;;
12135;SDS011;6131;56.420;15.548;2023-02-28T08:09:52;4.20;;;2.20;;
12135;SDS011;6131;56.420;15.548;2023-02-28T08:12:18;3.00;;;1.70;;
12135;SDS011;6131;56.420;15.548;2023-02-28T08:14:44;4.63;;;2.00;;
12135;SDS011;6131;56.420;15.548;2023-02-28T08:17:11;2.07;;;1.50;;
12135;SDS011;6131;56.420;15.548;2023-02-28T08:19:37;3.13;;;1.43;;
12135;SDS011;6131;56.420;15.548;2023-02-28T08:22:03;6.50;;;2.10;;
12135;SDS011;6131;56.420;15.548;2023-02-28T08:24:29;2.00;;;1.40;;
12135;SDS011;6131;56.420;15.548;2023-02-28T08:26:55;2.10;;;1.40;;
12135;SDS011;6131;56.420;15.548;2023-02-28T08:29:21;2.13;;;1.50;;
12135;SDS011;6131;56.420;15.548;2023-02-28T08:31:47;2.83;;;1.23;;
12135;SDS011;6131;56.420;15.548;2023-02-28T08:34:14;1.97;;;1.30;;
12135;SDS011;6131;56.420;15.548;2023-02-28T08:36:40;3.17;;;1.63;;
12135;SDS011;6131;56.420;15.548;2023-02-28T08:39:08;3.00;;;1.50;;
12135;SDS011;6131;56.420;15.548;2023-02-28T08:41:34;1.87;;;1.33;;
12135;SDS011;6131;56.420;15.548;2023-02-28T08:44:00;1.80;;;1.30;;
12135;SDS011;6131;56.420;15.548;2023-02-28T08:46:26;2.17;;;1.33;;
12135;SDS011;6131;56.420;15.548;2023-02-28T08:48:53;2.20;;;1.30;;
12135;SDS011;6131;56.420;15.548;2023-02-28T08:51:19;2.33;;;1.40;;
12135;SDS011;6131;56.420;15.548;2023-02-28T08:53:55;3.00;;;1.50;;
12135;SDS011;6131;56.420;15.548;2023-02-28T08:56:23;2.23;;;1.00;;
12135;SDS011;6131;56.420;15.548;2023-02-28T08:58:49;1.60;;;1.00;;
12135;SDS011;6131;56.420;15.548;2023-02-28T09:01:20;2.30;;;1.30;;
12135;SDS011;6131;56.420;15.548;2023-02-28T09:03:47;1.40;;;1.10;;
12135;SDS011;6131;56.420;15.548;2023-02-28T09:06:13;1.30;;;1.10;;
12135;SDS011;6131;56.420;15.548;2023-02-28T09:08:40;2.10;;;1.00;;
12135;SDS011;6131;56.420;15.548;2023-02-28T09:11:06;2.40;;;1.17;;
12135;SDS011;6131;56.420;15.548;2023-02-28T09:13:32;2.40;;;1.10;;
12135;SDS011;6131;56.420;15.548;2023-02-28T09:15:59;2.13;;;1.40;;
12135;SDS011;6131;56.420;15.548;2023-02-28T09:18:25;2.13;;;1.30;;
12135;SDS011;6131;56.420;15.548;2023-02-28T09:20:51;1.30;;;1.10;;
12135;SDS011;6131;56.420;15.548;2023-02-28T09:23:17;2.80;;;1.20;;
12135;SDS011;6131;56.420;15.548;2023-02-28T09:25:50;1.67;;;1.13;;
12135;SDS011;6131;56.420;15.548;2023-02-28T09:28:16;1.80;;;0.93;;
12135;SDS011;6131;56.420;15.548;2023-02-28T09:30:47;1.60;;;1.00;;
12135;SDS011;6131;56.420;15.548;2023-02-28T09:33:13;1.47;;;1.10;;
12135;SDS011;6131;56.420;15.548;2023-02-28T09:35:39;1.50;;;1.00;;
12135;SDS011;6131;56.420;15.548;2023-02-28T09:38:05;1.97;;;1.10;;
12135;SDS011;6131;56.420;15.548;2023-02-28T09:41:09;1.10;;;0.80;;
12135;SDS011;6131;56.420;15.548;2023-02-28T09:43:34;1.70;;;0.90;;
12135;SDS011;6131;56.420;15.548;2023-02-28T09:48:46;2.10;;;1.00;;
12135;SDS011;6131;56.420;15.548;2023-02-28T09:53:52;3.27;;;1.20;;
12135;SDS011;6131;56.420;15.548;2023-02-28T09:56:20;2.33;;;1.10;;
12135;SDS011;6131;56.420;15.548;2023-02-28T10:01:23;1.87;;;0.70;;
12135;SDS011;6131;56.420;15.548;2023-02-28T10:03:55;2.17;;;0.97;;
12135;SDS011;6131;56.420;15.548;2023-02-28T10:06:29;2.13;;;1.00;;
12135;SDS011;6131;56.420;15.548;2023-02-28T10:08:56;0.80;;;0.70;;
12135;SDS011;6131;56.420;15.548;2023-02-28T10:11:24;3.13;;;0.93;;
12135;SDS011;6131;56.420;15.548;2023-02-28T10:13:52;2.37;;;0.90;;
12135;SDS011;6131;56.420;15.548;2023-02-28T10:18:51;0.63;;;0.60;;
12135;SDS011;6131;56.420;15.548;2023-02-28T10:21:21;2.00;;;0.83;;
12135;SDS011;6131;56.420;15.548;2023-02-28T10:23:49;1.50;;;0.80;;
12135;SDS011;6131;56.420;15.548;2023-02-28T10:26:17;0.67;;;0.60;;
12135;SDS011;6131;56.420;15.548;2023-02-28T10:28:44;1.27;;;0.70;;
12135;SDS011;6131;56.420;15.548;2023-02-28T10:31:19;1.43;;;0.73;;
12135;SDS011;6131;56.420;15.548;2023-02-28T10:33:46;0.80;;;0.73;;
12135;SDS011;6131;56.420;15.548;2023-02-28T10:36:16;1.50;;;0.70;;
12135;SDS011;6131;56.420;15.548;2023-02-28T10:38:43;0.83;;;0.60;;
12135;SDS011;6131;56.420;15.548;2023-02-28T10:41:14;1.20;;;0.80;;
12135;SDS011;6131;56.420;15.548;2023-02-28T10:43:40;1.00;;;0.80;;
12135;SDS011;6131;56.420;15.548;2023-02-28T10:48:44;0.77;;;0.40;;
12135;SDS011;6131;56.420;15.548;2023-02-28T10:51:13;0.83;;;0.57;;
12135;SDS011;6131;56.420;15.548;2023-02-28T11:04:01;1.10;;;0.43;;
12135;SDS011;6131;56.420;15.548;2023-02-28T11:06:31;0.97;;;0.40;;
12135;SDS011;6131;56.420;15.548;2023-02-28T11:08:58;0.67;;;0.50;;
12135;SDS011;6131;56.420;15.548;2023-02-28T11:11:26;0.60;;;0.60;;
12135;SDS011;6131;56.420;15.548;2023-02-28T11:13:53;1.10;;;0.70;;
12135;SDS011;6131;56.420;15.548;2023-02-28T11:16:20;0.90;;;0.40;;
12135;SDS011;6131;56.420;15.548;2023-02-28T11:21:16;0.70;;;0.50;;
12135;SDS011;6131;56.420;15.548;2023-02-28T11:23:43;1.10;;;0.50;;
12135;SDS011;6131;56.420;15.548;2023-02-28T11:26:10;0.90;;;0.40;;
12135;SDS011;6131;56.420;15.548;2023-02-28T11:28:40;0.80;;;0.50;;
12135;SDS011;6131;56.420;15.548;2023-02-28T11:33:43;1.70;;;0.40;;
12135;SDS011;6131;56.420;15.548;2023-02-28T11:36:14;0.60;;;0.50;;
12135;SDS011;6131;56.420;15.548;2023-02-28T11:38:42;1.03;;;0.40;;
12135;SDS011;6131;56.420;15.548;2023-02-28T11:46:33;0.57;;;0.40;;
12135;SDS011;6131;56.420;15.548;2023-02-28T11:56:51;1.63;;;0.50;;
12135;SDS011;6131;56.420;15.548;2023-02-28T11:59:29;0.80;;;0.50;;
12135;SDS011;6131;56.420;15.548;2023-02-28T12:02:15;0.60;;;0.40;;
12135;SDS011;6131;56.420;15.548;2023-02-28T12:12:27;0.60;;;0.40;;
12135;SDS011;6131;56.420;15.548;2023-02-28T12:20:21;1.80;;;0.50;;
12135;SDS011;6131;56.420;15.548;2023-02-28T12:25:29;0.90;;;0.33;;
12135;SDS011;6131;56.420;15.548;2023-02-28T12:27:58;1.90;;;0.40;;
12135;SDS011;6131;56.420;15.548;2023-02-28T12:30:28;0.60;;;0.40;;
12135;SDS011;6131;56.420;15.548;2023-02-28T12:32:56;0.50;;;0.47;;
12135;SDS011;6131;56.420;15.548;2023-02-28T12:35:28;0.70;;;0.30;;
12135;SDS011;6131;56.420;15.548;2023-02-28T12:40:34;0.70;;;0.30;;
12135;SDS011;6131;56.420;15.548;2023-02-28T12:43:07;0.83;;;0.30;;
12135;SDS011;6131;56.420;15.548;2023-02-28T12:45:39;0.50;;;0.30;;
12135;SDS011;6131;56.420;15.548;2023-02-28T12:48:08;1.13;;;0.50;;
12135;SDS011;6131;56.420;15.548;2023-02-28T12:50:35;0.63;;;0.50;;
12135;SDS011;6131;56.420;15.548;2023-02-28T12:53:17;0.53;;;0.40;;
12135;SDS011;6131;56.420;15.548;2023-02-28T12:55:53;0.60;;;0.33;;
12135;SDS011;6131;56.420;15.548;2023-02-28T13:01:13;0.90;;;0.60;;
12135;SDS011;6131;56.420;15.548;2023-02-28T13:03:57;0.90;;;0.47;;
12135;SDS011;6131;56.420;15.548;2023-02-28T13:07:17;2.20;;;0.40;;
12135;SDS011;6131;56.420;15.548;2023-02-28T13:09:14;0.57;;;0.40;;
12135;SDS011;6131;56.420;15.548;2023-02-28T13:14:29;0.90;;;0.50;;
12135;SDS011;6131;56.420;15.548;2023-02-28T13:20:19;0.80;;;0.50;;
12135;SDS011;6131;56.420;15.548;2023-02-28T13:22:35;0.73;;;0.33;;
12135;SDS011;6131;56.420;15.548;2023-02-28T13:27:46;0.43;;;0.40;;
12135;SDS011;6131;56.420;15.548;2023-02-28T13:35:44;0.63;;;0.20;;
12135;SDS011;6131;56.420;15.548;2023-02-28T13:38:22;1.07;;;0.50;;
12135;SDS011;6131;56.420;15.548;2023-02-28T13:40:48;0.83;;;0.40;;
12135;SDS011;6131;56.420;15.548;2023-02-28T13:43:16;1.07;;;0.47;;
12135;SDS011;6131;56.420;15.548;2023-02-28T13:45:56;0.83;;;0.40;;
12135;SDS011;6131;56.420;15.548;2023-02-28T13:48:28;0.60;;;0.30;;
12135;SDS011;6131;56.420;15.548;2023-02-28T13:50:55;1.77;;;0.30;;
12135;SDS011;6131;56.420;15.548;2023-02-28T13:53:44;0.70;;;0.53;;
12135;SDS011;6131;56.420;15.548;2023-02-28T13:56:29;0.50;;;0.47;;
12135;SDS011;6131;56.420;15.548;2023-02-28T13:59:06;0.83;;;0.40;;
12135;SDS011;6131;56.420;15.548;2023-02-28T14:07:00;0.73;;;0.40;;
12135;SDS011;6131;56.420;15.548;2023-02-28T14:11:53;0.67;;;0.50;;
12135;SDS011;6131;56.420;15.548;2023-02-28T14:17:05;0.60;;;0.50;;
12135;SDS011;6131;56.420;15.548;2023-02-28T14:19:31;1.30;;;1.00;;
12135;SDS011;6131;56.420;15.548;2023-02-28T14:32:51;2.83;;;0.57;;
12135;SDS011;6131;56.420;15.548;2023-02-28T14:35:31;1.00;;;0.40;;
12135;SDS011;6131;56.420;15.548;2023-02-28T14:38:03;0.50;;;0.40;;
12135;SDS011;6131;56.420;15.548;2023-02-28T14:40:35;1.23;;;0.50;;
12135;SDS011;6131;56.420;15.548;2023-02-28T14:43:02;0.73;;;0.60;;
12135;SDS011;6131;56.420;15.548;2023-02-28T14:45:29;0.63;;;0.40;;
12135;SDS011;6131;56.420;15.548;2023-02-28T14:47:56;1.33;;;0.60;;
12135;SDS011;6131;56.420;15.548;2023-02-28T14:50:23;0.60;;;0.50;;
12135;SDS011;6131;56.420;15.548;2023-02-28T14:52:53;1.23;;;0.60;;
12135;SDS011;6131;56.420;15.548;2023-02-28T14:55:22;1.10;;;0.70;;
12135;SDS011;6131;56.420;15.548;2023-02-28T15:02:47;1.60;;;0.90;;
12135;SDS011;6131;56.420;15.548;2023-02-28T15:07:43;0.50;;;0.40;;
12135;SDS011;6131;56.420;15.548;2023-02-28T15:10:10;0.70;;;0.40;;
12135;SDS011;6131;56.420;15.548;2023-02-28T15:12:37;0.70;;;0.50;;
12135;SDS011;6131;56.420;15.548;2023-02-28T15:15:05;1.27;;;0.70;;
12135;SDS011;6131;56.420;15.548;2023-02-28T15:17:32;0.60;;;0.50;;
12135;SDS011;6131;56.420;15.548;2023-02-28T15:19:59;1.37;;;0.67;;
12135;SDS011;6131;56.420;15.548;2023-02-28T15:22:31;1.10;;;0.70;;
12135;SDS011;6131;56.420;15.548;2023-02-28T15:25:00;1.33;;;0.50;;
12135;SDS011;6131;56.420;15.548;2023-02-28T15:27:29;1.37;;;0.50;;
12135;SDS011;6131;56.420;15.548;2023-02-28T15:30:07;0.70;;;0.37;;
12135;SDS011;6131;56.420;15.548;2023-02-28T15:32:34;1.00;;;0.57;;
12135;SDS011;6131;56.420;15.548;2023-02-28T15:37:47;1.10;;;0.40;;
12135;SDS011;6131;56.420;15.548;2023-02-28T15:40:23;0.60;;;0.50;;
12135;SDS011;6131;56.420;15.548;2023-02-28T15:45:41;1.23;;;0.60;;
12135;SDS011;6131;56.420;15.548;2023-02-28T15:48:17;0.60;;;0.60;;
12135;SDS011;6131;56.420;15.548;2023-02-28T15:50:44;2.30;;;0.60;;
12135;SDS011;6131;56.420;15.548;2023-02-28T15:53:14;0.57;;;0.50;;
12135;SDS011;6131;56.420;15.548;2023-02-28T15:55:41;1.10;;;0.70;;
12135;SDS011;6131;56.420;15.548;2023-02-28T15:58:08;0.90;;;0.60;;
12135;SDS011;6131;56.420;15.548;2023-02-28T16:00:38;0.70;;;0.50;;
12135;SDS011;6131;56.420;15.548;2023-02-28T16:03:23;0.90;;;0.60;;
12135;SDS011;6131;56.420;15.548;2023-02-28T16:06:07;1.10;;;0.70;;
12135;SDS011;6131;56.420;15.548;2023-02-28T16:08:33;2.43;;;0.53;;
12135;SDS011;6131;56.420;15.548;2023-02-28T16:10:59;2.10;;;0.70;;
12135;SDS011;6131;56.420;15.548;2023-02-28T16:13:25;3.47;;;1.43;;
12135;SDS011;6131;56.420;15.548;2023-02-28T16:15:51;13.17;;;3.63;;
12135;SDS011;6131;56.420;15.548;2023-02-28T16:18:19;6.90;;;2.60;;
12135;SDS011;6131;56.420;15.548;2023-02-28T16:20:45;1.90;;;0.90;;
12135;SDS011;6131;56.420;15.548;2023-02-28T16:23:11;1.73;;;0.80;;
12135;SDS011;6131;56.420;15.548;2023-02-28T16:25:42;1.37;;;0.80;;
12135;SDS011;6131;56.420;15.548;2023-02-28T16:28:19;3.20;;;0.73;;
12135;SDS011;6131;56.420;15.548;2023-02-28T16:30:46;1.23;;;0.93;;
12135;SDS011;6131;56.420;15.548;2023-02-28T16:33:12;1.43;;;0.97;;
12135;SDS011;6131;56.420;15.548;2023-02-28T16:35:38;7.80;;;2.30;;
12135;SDS011;6131;56.420;15.548;2023-02-28T16:38:04;2.60;;;1.17;;
12135;SDS011;6131;56.420;15.548;2023-02-28T16:40:33;2.20;;;0.90;;
12135;SDS011;6131;56.420;15.548;2023-02-28T16:42:59;2.73;;;1.10;;
12135;SDS011;6131;56.420;15.548;2023-02-28T16:45:26;5.40;;;2.23;;
12135;SDS011;6131;56.420;15.548;2023-02-28T16:47:53;1.93;;;0.90;;
12135;SDS011;6131;56.420;15.548;2023-02-28T16:50:29;2.43;;;1.00;;
12135;SDS011;6131;56.420;15.548;2023-02-28T16:52:55;1.87;;;1.00;;
12135;SDS011;6131;56.420;15.548;2023-02-28T16:55:22;2.03;;;0.80;;
12135;SDS011;6131;56.420;15.548;2023-02-28T16:57:53;1.10;;;0.80;;
12135;SDS011;6131;56.420;15.548;2023-02-28T17:00:19;1.23;;;0.87;;
12135;SDS011;6131;56.420;15.548;2023-02-28T17:02:45;1.90;;;0.70;;
12135;SDS011;6131;56.420;15.548;2023-02-28T17:05:11;3.80;;;0.87;;
12135;SDS011;6131;56.420;15.548;2023-02-28T17:07:38;0.80;;;0.70;;
12135;SDS011;6131;56.420;15.548;2023-02-28T17:10:15;1.13;;;0.70;;
12135;SDS011;6131;56.420;15.548;2023-02-28T17:12:41;1.00;;;0.60;;
12135;SDS011;6131;56.420;15.548;2023-02-28T17:15:08;1.50;;;0.70;;
12135;SDS011;6131;56.420;15.548;2023-02-28T17:17:34;0.97;;;0.60;;
12135;SDS011;6131;56.420;15.548;2023-02-28T17:20:00;2.03;;;0.60;;
12135;SDS011;6131;56.420;15.548;2023-02-28T17:22:26;1.27;;;0.80;;